首页
METAR-TAF:

METAR-TAF

机场 :

尼亞美, 尼日尔

迪奥里·哈马尼国际机场

纬度: 13-29N, 经度: 002-10E, 海拔: 223米

当前天气观测

该预报发布于53分钟前的06:00 UTC
风速10节,风向西南
温度 32°C
湿度 38%
气压 1008 hPa
能見度: 8000

METAR: DRRN 250600Z 23010KT 8000 NSC 32/16 Q1008 NOSIG

时间: 07:53 (06:53 UTC)

预报

该预报发布于1小时和53分钟前的05:00 UTC
预报有效从25日的 06点(UTC)到 26日的 12点(UTC)
风速8节,风向西转西南
能見度: 8000
短暂存在
从 25日的 06点(UTC)到 25日的 08点(UTC)
能見度: 4000
浮尘
几率 30% :
短暂存在
从 25日的 15点(UTC)到 25日的 20点(UTC)
少量云层高于4500英尺, 积雨云.
雷暴
短暂存在
从 26日的 06点(UTC)到 26日的 08点(UTC)
能見度: 4000
浮尘

TAF: DRRN 250500Z 2506/2612 24008KT 8000 NSC TEMPO 2506/2508 4000 DU PROB30 TEMPO 2515/2520 TS FEW045CB TEMPO 2606/2608 4000 DU

超过4000个机场的气象观测和天气预报(METAR&TAF报告)。

可查询的气象台以黄色和红色小点在地图上表示。

将鼠标移到小点上方,可查看气象台名称。

然后点击查看天气观测和预报。

如需切换地图:点击带黑十字的绿色按钮放大地图;点击带横线的绿色按钮缩小地图;或者点击绿色箭头查看邻近地区的地图。


METAR-TAF: